Time;durP1;ratioP1;P1;durP2;ratioP2;P2;SDS_P1;SDS_P2;PMS_P1;PMS_P2;Temp;Humidity;BMP_temperature;BMP_pressure;BME280_temperature;BME280_humidity;BME280_pressure;Samples;Min_cycle;Max_cycle;Signal;HPM_P1;HPM_P2
2022/01/21 00:00:14;;;;;;;;;6.00;5.00;;;;;21.30;43.18;100410.27;113099;1241;18344;-71
2022/01/21 00:03:00;;;;;;;;;8.33;6.00;;;;;21.28;43.20;100409.89;113086;1242;19245;-72
2022/01/21 00:05:26;;;;;;;;;6.00;6.00;;;;;21.29;43.10;100407.52;113009;1241;21331;-73
2022/01/21 00:07:52;;;;;;;;;6.00;6.00;;;;;21.30;43.02;100414.52;113047;1242;22215;-71
2022/01/21 00:10:18;;;;;;;;;9.00;8.00;;;;;21.29;43.21;100418.02;113076;1242;18667;-73
2022/01/21 00:12:46;;;;;;;;;6.00;6.00;;;;;21.29;43.18;100417.98;113033;1241;21157;-71
2022/01/21 00:15:12;;;;;;;;;8.00;6.00;;;;;21.29;43.13;100423.13;112990;1242;18798;-72
2022/01/21 00:17:38;;;;;;;;;5.50;5.00;;;;;21.28;43.09;100422.63;113085;1242;18440;-71
2022/01/21 00:31:02;;;;;;;;;4.33;4.33;;;;;21.25;43.00;100434.23;113011;1241;18848;-73
2022/01/21 00:33:28;;;;;;;;;6.00;5.50;;;;;21.25;43.06;100435.33;113029;1242;18442;-72
2022/01/21 00:35:54;;;;;;;;;5.50;5.50;;;;;21.26;43.09;100438.56;113054;1242;20247;-71
2022/01/21 00:38:21;;;;;;;;;5.00;5.00;;;;;21.24;43.24;100438.16;113033;1241;18665;-71
2022/01/21 00:40:47;;;;;;;;;6.00;4.67;;;;;21.26;43.11;100440.28;113033;1242;22119;-71
2022/01/21 00:43:19;;;;;;;;;4.50;4.50;;;;;21.26;43.03;100436.76;113043;1242;23009;-71
2022/01/21 00:45:45;;;;;;;;;6.67;5.00;;;;;21.26;43.01;100433.65;113012;1242;18476;-72
2022/01/21 00:48:11;;;;;;;;;6.00;6.00;;;;;21.25;43.19;100438.77;113072;1242;18549;-74
2022/01/21 00:50:37;;;;;;;;;5.00;4.00;;;;;21.24;42.90;100429.44;113044;1242;19824;-72
2022/01/21 00:53:02;;;;;;;;;6.00;6.00;;;;;21.25;43.02;100434.78;113038;1242;18453;-73
2022/01/21 00:55:28;;;;;;;;;4.00;4.00;;;;;21.26;43.09;100436.04;113059;1242;19873;-73
2022/01/21 00:57:54;;;;;;;;;5.00;5.00;;;;;21.26;42.92;100438.19;113003;1242;20079;-71
2022/01/21 01:00:20;;;;;;;;;4.00;4.00;;;;;21.26;43.00;100445.27;113043;1241;19722;-71
2022/01/21 01:02:46;;;;;;;;;5.00;4.00;;;;;21.25;43.00;100443.79;113080;1241;18387;-71
2022/01/21 01:05:12;;;;;;;;;5.50;5.00;;;;;21.26;43.13;100440.95;113080;1242;19270;-72
2022/01/21 01:07:38;;;;;;;;;5.00;4.00;;;;;21.25;43.18;100445.02;113031;1242;18791;-72
2022/01/21 01:10:04;;;;;;;;;5.00;5.00;;;;;21.25;43.11;100445.89;113072;1242;19906;-70
2022/01/21 01:12:45;;;;;;;;;4.00;4.00;;;;;21.24;43.10;100446.55;113105;1241;21131;-72
2022/01/21 01:20:42;;;;;;;;;4.50;4.50;;;;;21.24;43.10;100450.45;113041;1242;19428;-73
2022/01/21 01:23:20;;;;;;;;;4.00;4.00;;;;;21.23;43.22;100450.17;113061;1241;20666;-72
2022/01/21 01:28:32;;;;;;;;;5.00;4.00;;;;;21.24;42.98;100455.02;113061;1242;19534;-71
2022/01/21 01:30:58;;;;;;;;;4.00;4.00;;;;;21.23;42.93;100451.83;113013;1241;20001;-72
2022/01/21 01:33:26;;;;;;;;;6.00;6.00;;;;;21.23;42.98;100458.39;113065;1241;19012;-71
2022/01/21 01:35:52;;;;;;;;;6.00;4.67;;;;;21.23;43.00;100456.17;113025;1242;20804;-71
2022/01/21 01:38:36;;;;;;;;;8.00;4.00;;;;;21.22;42.76;100453.30;113078;1242;18294;-71
2022/01/21 01:41:07;;;;;;;;;4.00;2.00;;;;;21.22;42.90;100464.99;113051;1242;21900;-72
2022/01/21 01:51:45;;;;;;;;;4.00;4.00;;;;;21.23;42.88;100476.65;113016;1241;19434;-71
2022/01/21 01:54:12;;;;;;;;;6.00;4.00;;;;;21.24;42.67;100479.72;113007;1241;18981;-71
2022/01/21 01:56:38;;;;;;;;;5.00;4.50;;;;;21.24;42.79;100475.33;113237;1241;18493;-71
2022/01/21 01:59:04;;;;;;;;;4.00;4.00;;;;;21.24;42.85;100479.55;113066;1242;19258;-74
2022/01/21 02:01:29;;;;;;;;;4.00;4.00;;;;;21.23;42.83;100479.92;113067;1242;18650;-71
2022/01/21 02:03:55;;;;;;;;;6.00;5.00;;;;;21.24;42.78;100473.90;113065;1242;18360;-70
2022/01/21 02:06:21;;;;;;;;;4.00;4.00;;;;;21.24;42.79;100481.36;113001;1241;19140;-72
2022/01/21 02:08:47;;;;;;;;;4.50;4.00;;;;;21.24;42.70;100482.61;113050;1242;18375;-71
2022/01/21 02:11:13;;;;;;;;;5.00;4.00;;;;;21.23;42.66;100484.00;113101;1242;20967;-71
2022/01/21 02:13:43;;;;;;;;;6.00;4.00;;;;;21.22;42.68;100482.20;112976;1241;19232;-71
2022/01/21 02:16:14;;;;;;;;;5.00;4.00;;;;;21.23;42.68;100486.34;113039;1242;18413;-71
2022/01/21 02:21:30;;;;;;;;;2.00;2.00;;;;;21.23;42.73;100487.48;113011;1242;24058;-73
2022/01/21 02:23:56;;;;;;;;;4.33;4.00;;;;;21.22;42.79;100484.04;113037;1242;18572;-70
2022/01/21 02:26:22;;;;;;;;;5.00;4.00;;;;;21.22;42.68;100484.63;113093;1242;19861;-71
2022/01/21 02:28:48;;;;;;;;;5.00;4.00;;;;;21.23;42.53;100492.19;113089;1241;20747;-71
2022/01/21 02:31:14;;;;;;;;;4.00;4.00;;;;;21.21;42.83;100490.14;113097;1242;18657;-71
2022/01/21 02:33:39;;;;;;;;;2.00;2.00;;;;;21.21;42.60;100486.63;113089;1242;18667;-71
2022/01/21 02:36:05;;;;;;;;;2.00;2.00;;;;;21.21;42.69;100484.60;113048;1241;19335;-70
2022/01/21 02:38:31;;;;;;;;;5.00;5.00;;;;;21.21;42.75;100484.98;112987;1241;18913;-71
2022/01/21 02:40:57;;;;;;;;;2.00;2.00;;;;;21.19;42.61;100489.20;113081;1242;18444;-72
2022/01/21 02:43:23;;;;;;;;;6.00;4.00;;;;;21.20;42.54;100491.30;113021;1242;22982;-71
2022/01/21 02:45:49;;;;;;;;;5.00;4.00;;;;;21.19;42.65;100490.96;113092;1242;18393;-73
2022/01/21 02:48:15;;;;;;;;;4.00;3.00;;;;;21.19;42.59;100492.88;113055;1242;19089;-72
2022/01/21 02:50:41;;;;;;;;;4.00;4.00;;;;;21.18;42.56;100494.76;113064;1242;20201;-71
2022/01/21 02:53:12;;;;;;;;;5.00;4.00;;;;;21.18;42.55;100496.19;113108;1241;18339;-71
2022/01/21 02:55:38;;;;;;;;;6.00;4.00;;;;;21.18;42.59;100497.50;113037;1242;20677;-74
2022/01/21 02:58:03;;;;;;;;;4.00;2.00;;;;;21.19;42.54;100497.04;113070;1242;19859;-71
2022/01/21 03:00:29;;;;;;;;;2.00;2.00;;;;;21.18;42.49;100500.39;112987;1241;18336;-74
2022/01/21 03:02:55;;;;;;;;;2.00;2.00;;;;;21.18;42.62;100502.95;113105;1242;19205;-71
2022/01/21 03:05:21;;;;;;;;;3.00;3.00;;;;;21.18;42.59;100505.84;113054;1242;21721;-71
2022/01/21 03:07:47;;;;;;;;;4.00;4.00;;;;;21.18;42.53;100509.99;113037;1241;18217;-72
2022/01/21 03:10:13;;;;;;;;;5.00;4.00;;;;;21.18;42.63;100511.63;113057;1242;18875;-72
2022/01/21 03:12:39;;;;;;;;;2.00;2.00;;;;;21.19;42.56;100510.67;113079;1242;19379;-71
2022/01/21 03:15:07;;;;;;;;;4.00;4.00;;;;;21.19;42.52;100519.31;113033;1241;18341;-71
2022/01/21 03:17:33;;;;;;;;;4.00;3.33;;;;;21.19;42.41;100517.17;113018;1241;20711;-72
2022/01/21 03:19:58;;;;;;;;;2.00;2.00;;;;;21.19;42.63;100524.46;113083;1241;19365;-71
2022/01/21 03:22:24;;;;;;;;;2.00;2.00;;;;;21.18;42.29;100526.14;113063;1242;19103;-73
2022/01/21 03:24:50;;;;;;;;;2.00;2.00;;;;;21.19;42.40;100530.09;113025;1242;18734;-71
2022/01/21 03:27:17;;;;;;;;;2.00;2.00;;;;;21.19;42.57;100525.05;113038;1241;19185;-73
2022/01/21 03:29:42;;;;;;;;;4.00;2.00;;;;;21.18;42.57;100528.39;113048;1242;19872;-71
2022/01/21 03:32:08;;;;;;;;;5.00;4.00;;;;;21.18;42.50;100529.27;113025;1242;18371;-71
2022/01/21 03:34:34;;;;;;;;;2.00;2.00;;;;;21.18;42.43;100537.03;113031;1241;19183;-72
2022/01/21 03:37:00;;;;;;;;;4.00;4.00;;;;;21.19;42.51;100539.17;113096;1242;19740;-71
2022/01/21 03:39:26;;;;;;;;;4.00;2.00;;;;;21.18;42.35;100541.27;113064;1241;18427;-72
2022/01/21 03:41:52;;;;;;;;;4.50;4.00;;;;;21.18;42.29;100540.93;113053;1242;19179;-72
2022/01/21 03:44:18;;;;;;;;;2.00;2.00;;;;;21.18;42.54;100546.04;113003;1241;22227;-73
2022/01/21 03:46:43;;;;;;;;;2.00;2.00;;;;;21.17;42.40;100547.73;113062;1241;18851;-71
2022/01/21 03:49:09;;;;;;;;;4.00;4.00;;;;;21.16;42.40;100549.64;113114;1242;22922;-71
2022/01/21 03:51:35;;;;;;;;;4.00;4.00;;;;;21.14;42.40;100548.23;113052;1242;21113;-70
2022/01/21 03:54:01;;;;;;;;;2.00;2.00;;;;;21.16;42.39;100552.38;113084;1242;19055;-73
2022/01/21 03:56:27;;;;;;;;;2.00;2.00;;;;;21.16;42.49;100550.95;113047;1241;19219;-72
2022/01/21 03:58:53;;;;;;;;;3.00;3.00;;;;;21.16;42.30;100560.08;113061;1241;22235;-73
2022/01/21 04:01:19;;;;;;;;;3.00;3.00;;;;;21.16;42.20;100557.52;113061;1242;19040;-72
2022/01/21 04:03:45;;;;;;;;;2.00;2.00;;;;;21.16;42.37;100555.30;113051;1241;20942;-72
2022/01/21 04:06:11;;;;;;;;;2.00;2.00;;;;;21.16;42.49;100552.61;113040;1242;18316;-72
2022/01/21 04:08:37;;;;;;;;;2.00;2.00;;;;;21.15;42.27;100556.89;113073;1242;18596;-72
2022/01/21 04:11:03;;;;;;;;;2.00;2.00;;;;;21.15;42.34;100553.95;113118;1242;22383;-72
2022/01/21 04:13:29;;;;;;;;;4.00;4.00;;;;;21.16;42.16;100551.02;113124;1241;18252;-72
2022/01/21 04:15:55;;;;;;;;;4.00;4.00;;;;;21.15;42.20;100546.19;113130;1242;20215;-72
2022/01/21 04:18:22;;;;;;;;;4.00;4.00;;;;;21.15;42.18;100553.65;113173;1242;19885;-71
2022/01/21 04:20:48;;;;;;;;;4.00;4.00;;;;;21.15;42.14;100552.91;113094;1242;20882;-71
2022/01/21 04:23:14;;;;;;;;;4.00;4.00;;;;;21.16;42.31;100555.34;113073;1242;18427;-72
2022/01/21 04:25:40;;;;;;;;;4.00;2.00;;;;;21.16;42.22;100554.41;113085;1242;20577;-71
2022/01/21 04:28:05;;;;;;;;;4.00;4.00;;;;;21.15;42.34;100555.87;113068;1242;18340;-71
2022/01/21 04:30:31;;;;;;;;;4.00;2.00;;;;;21.15;42.33;100557.21;113056;1242;18996;-72
2022/01/21 04:32:57;;;;;;;;;4.00;4.00;;;;;21.14;42.31;100560.44;113071;1241;19936;-73
2022/01/21 04:35:23;;;;;;;;;3.00;3.00;;;;;21.15;42.21;100559.48;112996;1242;18653;-73
2022/01/21 04:37:54;;;;;;;;;4.00;4.00;;;;;21.15;42.22;100569.46;113111;1241;20137;-74
2022/01/21 04:40:22;;;;;;;;;2.00;2.00;;;;;21.15;42.18;100572.56;113099;1242;21632;-73
2022/01/21 04:48:17;;;;;;;;;4.00;4.00;;;;;21.14;42.23;100559.42;113066;1242;19512;-72
2022/01/21 04:50:53;;;;;;;;;4.00;4.00;;;;;21.14;42.26;100566.09;113133;1241;18280;-70
2022/01/21 04:53:19;;;;;;;;;2.67;2.67;;;;;21.14;42.22;100565.09;113091;1242;20742;-72
2022/01/21 04:55:45;;;;;;;;;2.00;2.00;;;;;21.14;42.23;100566.30;113075;1242;19172;-73
2022/01/21 04:58:11;;;;;;;;;2.00;2.00;;;;;21.13;42.16;100569.48;113046;1241;18570;-71
2022/01/21 05:00:36;;;;;;;;;3.00;2.00;;;;;21.14;42.06;100573.39;113039;1241;23117;-71
2022/01/21 05:03:02;;;;;;;;;2.00;2.00;;;;;21.13;41.94;100573.97;113029;1242;19152;-72
2022/01/21 05:05:28;;;;;;;;;4.00;2.00;;;;;21.13;41.95;100571.53;113025;1241;18561;-71
2022/01/21 05:07:55;;;;;;;;;4.00;2.00;;;;;21.12;42.18;100568.55;113065;1242;19248;-72
2022/01/21 05:10:23;;;;;;;;;2.00;2.00;;;;;21.14;42.05;100581.40;113086;1241;19418;-71
2022/01/21 05:12:49;;;;;;;;;5.00;4.00;;;;;21.13;42.22;100573.88;113060;1242;22163;-71
2022/01/21 05:15:21;;;;;;;;;2.00;2.00;;;;;21.13;42.04;100576.65;113152;1241;19627;-71
2022/01/21 05:17:49;;;;;;;;;5.00;2.00;;;;;21.12;42.05;100578.39;113097;1241;22345;-72
2022/01/21 05:20:15;;;;;;;;;2.67;2.00;;;;;21.13;41.88;100578.66;113095;1242;18389;-72
2022/01/21 05:22:41;;;;;;;;;2.00;2.00;;;;;21.13;42.02;100581.85;113142;1242;18608;-72
2022/01/21 05:25:07;;;;;;;;;4.00;4.00;;;;;21.13;41.91;100582.77;113131;1242;19352;-72
2022/01/21 05:27:33;;;;;;;;;2.00;2.00;;;;;21.13;41.88;100586.45;113075;1241;22259;-70
2022/01/21 05:29:59;;;;;;;;;4.00;3.00;;;;;21.13;41.95;100586.41;113043;1242;18815;-70
2022/01/21 05:32:25;;;;;;;;;3.33;3.33;;;;;21.12;41.99;100589.92;113099;1242;19398;-70
2022/01/21 05:34:51;;;;;;;;;4.00;3.00;;;;;21.13;42.12;100592.04;113067;1242;22146;-72
2022/01/21 05:37:17;;;;;;;;;4.00;4.00;;;;;21.12;41.86;100589.22;113055;1241;18444;-71
2022/01/21 05:39:45;;;;;;;;;4.00;4.00;;;;;21.13;41.90;100592.55;113111;1241;21040;-71
2022/01/21 05:42:11;;;;;;;;;3.67;3.33;;;;;21.13;41.86;100592.61;113125;1242;18618;-71
2022/01/21 05:47:21;;;;;;;;;4.00;2.00;;;;;21.12;42.00;100602.27;113075;1242;19447;-72
2022/01/21 05:49:47;;;;;;;;;2.00;2.00;;;;;21.11;42.02;100592.60;113131;1241;19259;-71
2022/01/21 05:52:17;;;;;;;;;5.00;4.00;;;;;21.12;42.01;100593.92;113064;1242;21189;-70
2022/01/21 05:54:44;;;;;;;;;2.00;2.00;;;;;21.14;42.18;100602.20;113113;1242;19338;-71
2022/01/21 05:57:12;;;;;;;;;4.00;2.67;;;;;21.13;42.29;100599.16;113098;1242;18369;-72
2022/01/21 05:59:38;;;;;;;;;3.33;2.00;;;;;21.14;42.21;100604.63;112805;1242;21051;-71
2022/01/21 06:02:03;;;;;;;;;2.00;2.00;;;;;21.13;42.02;100600.76;113103;1241;19407;-71
2022/01/21 06:04:29;;;;;;;;;2.00;2.00;;;;;21.14;42.22;100603.78;113045;1241;18291;-71
2022/01/21 06:06:55;;;;;;;;;2.00;2.00;;;;;21.13;42.10;100605.66;113060;1242;19213;-71
2022/01/21 06:09:21;;;;;;;;;4.00;4.00;;;;;21.12;42.22;100604.39;113079;1242;22945;-72
2022/01/21 06:11:47;;;;;;;;;4.00;4.00;;;;;21.12;42.16;100607.03;112978;1242;19846;-72
2022/01/21 06:14:13;;;;;;;;;5.00;4.50;;;;;21.12;42.12;100606.99;113027;1242;18564;-71
2022/01/21 06:16:40;;;;;;;;;2.00;2.00;;;;;21.13;42.10;100610.95;113100;1241;20279;-72
2022/01/21 06:19:06;;;;;;;;;2.00;2.00;;;;;21.13;42.02;100613.64;113109;1242;22064;-72
2022/01/21 06:21:32;;;;;;;;;3.33;3.33;;;;;21.12;42.03;100615.25;113129;1242;19280;-71
2022/01/21 06:23:58;;;;;;;;;2.00;2.00;;;;;21.13;42.10;100611.86;113117;1242;21218;-69
2022/01/21 06:26:24;;;;;;;;;4.00;2.00;;;;;21.13;42.06;100617.32;113068;1242;18274;-70
2022/01/21 06:28:50;;;;;;;;;4.00;4.00;;;;;21.12;41.86;100616.85;113026;1241;18567;-72
2022/01/21 06:31:16;;;;;;;;;3.00;3.00;;;;;21.09;42.07;100619.35;113086;1242;19490;-71
2022/01/21 06:33:41;;;;;;;;;4.50;4.50;;;;;21.09;42.22;100618.29;113102;1242;19031;-72
2022/01/21 06:36:07;;;;;;;;;4.00;4.00;;;;;21.10;42.27;100626.77;113075;1241;19908;-70
2022/01/21 06:38:35;;;;;;;;;2.00;2.00;;;;;21.12;42.35;100623.83;113075;1242;21190;-72
2022/01/21 06:41:01;;;;;;;;;5.00;5.00;;;;;21.13;42.34;100628.55;113097;1241;22148;-70
2022/01/21 06:43:27;;;;;;;;;2.00;2.00;;;;;21.15;42.32;100631.39;113040;1241;18583;-70
2022/01/21 06:45:53;;;;;;;;;2.00;2.00;;;;;21.19;42.51;100635.70;113081;1241;20896;-71
2022/01/21 06:48:19;;;;;;;;;4.00;4.00;;;;;21.21;42.49;100642.29;112968;1242;18639;-71
2022/01/21 06:50:45;;;;;;;;;6.00;5.00;;;;;21.25;42.63;100642.90;112934;1242;19116;-71
2022/01/21 06:53:11;;;;;;;;;4.50;4.00;;;;;21.30;42.86;100640.16;112715;1242;20777;-71
2022/01/21 06:55:37;;;;;;;;;5.00;5.00;;;;;21.28;43.23;100640.02;112767;1241;18621;-72
2022/01/21 06:58:03;;;;;;;;;4.67;4.00;;;;;21.32;43.28;100644.86;112887;1242;18923;-70
2022/01/21 07:00:29;;;;;;;;;3.00;3.00;;;;;21.31;43.40;100649.25;112966;1241;19759;-70
2022/01/21 07:02:54;;;;;;;;;4.00;4.00;;;;;21.33;43.60;100649.54;113042;1242;18445;-70
2022/01/21 07:05:22;;;;;;;;;4.00;4.00;;;;;21.34;43.77;100654.92;113090;1242;19107;-73
2022/01/21 07:07:47;;;;;;;;;2.00;2.00;;;;;21.36;43.58;100650.31;113058;1241;22465;-71
2022/01/21 07:10:14;;;;;;;;;4.00;4.00;;;;;21.37;43.93;100658.61;113070;1242;18214;-70
2022/01/21 07:12:40;;;;;;;;;4.00;4.00;;;;;21.37;44.14;100659.34;112981;1242;23891;-71
2022/01/21 07:15:06;;;;;;;;;4.00;4.00;;;;;21.36;44.02;100662.85;113035;1242;19162;-72
2022/01/21 07:17:32;;;;;;;;;5.33;4.67;;;;;21.36;44.21;100655.09;112988;1242;19220;-71
2022/01/21 07:19:58;;;;;;;;;5.00;5.00;;;;;21.37;44.43;100658.76;112983;1242;21118;-70
2022/01/21 07:22:24;;;;;;;;;7.00;5.00;;;;;21.40;44.60;100660.41;112971;1241;19166;-73
2022/01/21 07:24:50;;;;;;;;;5.00;5.00;;;;;21.40;44.44;100658.55;112985;1242;21250;-72
2022/01/21 07:27:16;;;;;;;;;8.50;8.00;;;;;21.40;44.81;100661.55;113116;1241;19046;-73
2022/01/21 07:29:42;;;;;;;;;8.00;8.00;;;;;21.40;44.93;100670.45;113074;1241;19224;-73
2022/01/21 07:32:07;;;;;;;;;9.50;9.00;;;;;21.42;45.62;100669.86;113088;1242;18723;-71
2022/01/21 07:34:33;;;;;;;;;13.00;12.00;;;;;21.45;47.01;100677.05;112987;1241;19271;-73
2022/01/21 07:36:59;;;;;;;;;13.50;12.50;;;;;21.49;48.49;100679.39;113040;1241;19257;-73
2022/01/21 07:39:25;;;;;;;;;18.00;17.00;;;;;21.50;50.15;100681.41;113053;1242;18768;-72
2022/01/21 07:41:51;;;;;;;;;17.00;16.00;;;;;21.51;51.58;100680.92;113051;1242;19308;-73
2022/01/21 07:44:17;;;;;;;;;16.00;14.00;;;;;21.49;52.24;100680.36;113062;1241;19037;-72
2022/01/21 07:46:43;;;;;;;;;23.50;22.00;;;;;21.48;51.45;100686.55;113030;1242;18652;-72
2022/01/21 07:49:09;;;;;;;;;17.50;17.00;;;;;21.48;50.77;100687.09;113027;1242;22844;-72
2022/01/21 07:51:34;;;;;;;;;20.00;17.50;;;;;21.49;49.93;100690.46;113007;1242;22052;-72
2022/01/21 07:54:00;;;;;;;;;24.00;22.00;;;;;21.49;49.86;100694.83;113065;1241;18462;-71
2022/01/21 07:56:26;;;;;;;;;22.00;21.50;;;;;21.48;49.64;100695.86;113030;1242;19437;-72
2022/01/21 07:58:52;;;;;;;;;31.00;28.00;;;;;21.46;49.43;100701.45;113012;1242;19142;-71
2022/01/21 08:01:18;;;;;;;;;29.00;27.00;;;;;21.45;49.46;100705.45;112997;1241;22176;-73
2022/01/21 08:03:44;;;;;;;;;27.00;25.00;;;;;21.43;49.64;100709.08;113023;1242;19194;-71
2022/01/21 08:06:10;;;;;;;;;26.00;25.00;;;;;21.42;48.85;100709.48;113018;1241;19698;-72
2022/01/21 08:08:36;;;;;;;;;24.50;24.00;;;;;21.42;48.95;100709.23;113022;1242;21875;-72
2022/01/21 08:11:01;;;;;;;;;26.00;25.50;;;;;21.40;48.79;100716.19;113035;1242;18500;-73
2022/01/21 08:13:28;;;;;;;;;28.00;27.00;;;;;21.41;48.16;100717.21;113034;1241;20307;-73
2022/01/21 08:15:53;;;;;;;;;27.00;25.33;;;;;21.41;48.02;100721.70;113001;1242;19324;-72
2022/01/21 08:18:19;;;;;;;;;26.00;26.00;;;;;21.42;47.97;100726.92;113032;1242;18669;-74
2022/01/21 08:20:45;;;;;;;;;29.50;27.50;;;;;21.44;47.59;100732.28;113018;1241;19724;-73
2022/01/21 08:23:11;;;;;;;;;32.50;28.50;;;;;21.43;47.62;100729.70;113067;1242;18443;-75
2022/01/21 08:25:37;;;;;;;;;28.00;25.00;;;;;21.43;47.74;100729.50;112967;1242;18926;-73
2022/01/21 08:28:03;;;;;;;;;28.50;25.00;;;;;21.41;47.98;100726.58;113043;1242;19808;-73
2022/01/21 08:30:29;;;;;;;;;24.00;24.00;;;;;21.44;47.78;100730.52;113040;1242;18661;-75
2022/01/21 08:32:54;;;;;;;;;25.00;22.00;;;;;21.43;47.46;100725.89;113072;1241;18576;-74
2022/01/21 08:35:20;;;;;;;;;29.00;24.00;;;;;21.45;47.34;100729.48;113087;1241;19894;-80
2022/01/21 08:37:46;;;;;;;;;24.50;23.50;;;;;21.44;47.25;100737.14;113044;1241;18594;-71
2022/01/21 08:40:12;;;;;;;;;31.00;28.50;;;;;21.42;47.58;100734.05;113025;1241;22473;-73
2022/01/21 08:42:38;;;;;;;;;26.00;24.50;;;;;21.41;47.45;100734.70;113015;1242;21318;-73
2022/01/21 08:45:04;;;;;;;;;28.00;26.00;;;;;21.43;47.68;100735.37;113105;1241;19025;-74
2022/01/21 08:47:30;;;;;;;;;27.50;24.00;;;;;21.44;47.49;100738.23;113021;1242;19509;-74
2022/01/21 08:49:57;;;;;;;;;23.50;20.50;;;;;21.45;47.32;100742.54;113057;1242;19722;-72
2022/01/21 08:52:26;;;;;;;;;28.33;27.67;;;;;21.48;47.74;100739.45;113012;1242;19083;-73
2022/01/21 08:54:52;;;;;;;;;24.67;24.67;;;;;21.49;47.45;100739.55;113055;1242;18839;-73
2022/01/21 08:57:19;;;;;;;;;28.00;25.00;;;;;21.47;47.66;100744.85;113063;1242;21728;-75
2022/01/21 08:59:46;;;;;;;;;31.00;28.00;;;;;21.47;47.64;100739.59;112940;1242;19059;-71
2022/01/21 09:02:12;;;;;;;;;28.50;28.00;;;;;21.46;47.75;100741.30;113022;1241;18738;-71
2022/01/21 09:04:38;;;;;;;;;29.33;28.33;;;;;21.42;47.66;100741.46;112996;1242;20247;-73
2022/01/21 09:07:04;;;;;;;;;35.00;30.00;;;;;21.44;47.38;100748.23;112933;1242;22377;-73
2022/01/21 09:09:29;;;;;;;;;54.33;44.00;;;;;21.41;47.03;100746.42;113027;1242;18872;-74
2022/01/21 09:11:59;;;;;;;;;79.67;59.33;;;;;21.41;47.08;100743.19;112967;1242;19189;-73
2022/01/21 09:14:25;;;;;;;;;74.50;55.50;;;;;21.40;47.12;100740.18;112972;1242;19647;-74
2022/01/21 09:16:53;;;;;;;;;79.00;59.00;;;;;21.41;46.64;100739.34;112990;1241;19303;-71
2022/01/21 09:19:19;;;;;;;;;87.33;63.00;;;;;21.42;46.71;100740.77;113039;1241;19389;-71
2022/01/21 09:21:45;;;;;;;;;83.00;62.67;;;;;21.39;46.61;100738.76;113010;1242;18976;-73
2022/01/21 09:24:11;;;;;;;;;86.67;62.67;;;;;21.39;46.76;100744.38;113005;1241;19322;-72
2022/01/21 09:26:37;;;;;;;;;82.33;61.33;;;;;21.43;46.70;100737.34;112929;1241;19818;-73
2022/01/21 09:29:05;;;;;;;;;77.67;57.67;;;;;21.45;46.56;100737.45;112951;1241;18656;-71
2022/01/21 09:31:31;;;;;;;;;79.00;58.67;;;;;21.44;46.92;100736.94;113190;1241;19030;-73
2022/01/21 09:33:57;;;;;;;;;75.67;56.67;;;;;21.46;46.85;100739.70;113600;1242;21314;-73
2022/01/21 09:36:25;;;;;;;;;77.33;56.00;;;;;21.49;47.00;100738.08;113449;1242;18482;-74
2022/01/21 09:38:51;;;;;;;;;76.00;56.00;;;;;21.49;47.05;100738.71;113002;1242;20810;-74
2022/01/21 09:41:17;;;;;;;;;68.67;53.00;;;;;21.52;46.85;100745.48;113075;1242;19130;-73
2022/01/21 09:43:43;;;;;;;;;67.33;52.33;;;;;21.51;46.59;100744.30;112978;1242;18402;-73
2022/01/21 09:46:09;;;;;;;;;65.33;51.33;;;;;21.52;46.55;100746.09;112997;1242;18684;-71
2022/01/21 09:48:48;;;;;;;;;61.33;49.00;;;;;21.52;46.50;100747.70;113062;1242;19419;-73
2022/01/21 09:51:14;;;;;;;;;64.00;51.00;;;;;21.51;46.60;100746.86;113004;1241;18718;-74
2022/01/21 09:53:40;;;;;;;;;64.00;46.00;;;;;21.49;46.41;100747.31;112986;1242;20657;-71
2022/01/21 09:56:06;;;;;;;;;54.67;44.33;;;;;21.45;46.58;100749.04;113037;1242;21019;-72
2022/01/21 09:58:32;;;;;;;;;66.00;48.00;;;;;21.45;46.63;100749.24;113021;1241;18990;-71
2022/01/21 10:00:58;;;;;;;;;59.00;47.00;;;;;21.46;46.51;100748.05;112988;1242;18501;-72
2022/01/21 10:03:24;;;;;;;;;57.67;44.00;;;;;21.48;47.02;100745.48;113018;1241;22267;-72
2022/01/21 10:05:51;;;;;;;;;48.33;40.33;;;;;21.50;47.49;100749.05;113052;1242;19446;-72
2022/01/21 10:08:17;;;;;;;;;48.00;42.33;;;;;21.51;47.47;100748.66;112954;1242;21431;-72
2022/01/21 10:10:44;;;;;;;;;48.67;42.33;;;;;21.52;47.19;100747.81;112989;1242;19329;-73
2022/01/21 10:13:10;;;;;;;;;54.00;41.33;;;;;21.52;47.40;100747.68;112970;1242;18578;-71
2022/01/21 10:15:37;;;;;;;;;51.00;42.67;;;;;21.54;48.06;100742.38;112989;1242;18530;-74
2022/01/21 10:18:03;;;;;;;;;51.33;41.00;;;;;21.53;48.88;100734.50;113013;1242;20242;-73
2022/01/21 10:20:29;;;;;;;;;47.67;39.33;;;;;21.58;49.61;100742.23;113030;1242;18571;-71
2022/01/21 10:22:57;;;;;;;;;44.50;39.50;;;;;21.60;51.01;100746.02;113017;1242;23226;-71
2022/01/21 10:25:23;;;;;;;;;46.00;38.00;;;;;21.63;51.56;100747.65;113002;1242;22387;-71
2022/01/21 10:27:49;;;;;;;;;44.33;40.33;;;;;21.66;51.83;100748.02;113035;1241;19211;-71
2022/01/21 10:30:15;;;;;;;;;46.00;38.67;;;;;21.67;52.87;100748.27;113018;1242;19094;-70
2022/01/21 10:32:41;;;;;;;;;49.00;40.00;;;;;21.66;53.05;100750.89;113007;1242;19227;-75
2022/01/21 10:35:07;;;;;;;;;44.00;40.00;;;;;21.65;54.19;100752.73;113055;1242;19943;-81
2022/01/21 10:37:35;;;;;;;;;44.00;37.00;;;;;21.65;54.36;100753.84;113003;1241;18669;-82
2022/01/21 10:40:01;;;;;;;;;37.67;32.67;;;;;21.64;52.97;100752.66;112996;1242;19932;-76
2022/01/21 10:42:27;;;;;;;;;40.00;33.33;;;;;21.65;52.67;100754.36;113005;1241;18434;-79
2022/01/21 10:44:53;;;;;;;;;86.33;67.00;;;;;21.63;51.99;100755.73;113001;1242;19338;-84
2022/01/21 10:47:19;;;;;;;;;192.50;153.50;;;;;21.30;49.72;100760.06;113016;1242;23097;-81
2022/01/21 10:49:45;;;;;;;;;317.25;255.75;;;;;20.76;47.71;100762.17;113014;1241;18450;-73
2022/01/21 10:52:11;;;;;;;;;325.75;260.50;;;;;20.50;46.29;100761.64;113017;1242;18668;-71
2022/01/21 10:54:37;;;;;;;;;288.25;233.75;;;;;20.72;46.39;100767.02;112995;1242;22172;-71
2022/01/21 10:57:03;;;;;;;;;285.25;232.00;;;;;20.91;45.77;100766.12;113005;1241;19339;-72
2022/01/21 10:59:29;;;;;;;;;245.25;202.75;;;;;21.00;44.96;100764.11;113048;1242;20275;-72
2022/01/21 11:01:55;;;;;;;;;207.00;175.50;;;;;21.03;44.27;100764.25;113034;1241;19208;-71
2022/01/21 11:04:21;;;;;;;;;180.50;144.75;;;;;21.02;43.28;100770.27;113017;1242;23040;-71
2022/01/21 11:06:48;;;;;;;;;171.67;144.33;;;;;20.93;41.72;100767.73;113001;1242;19792;-76
2022/01/21 11:09:15;;;;;;;;;190.67;152.00;;;;;20.92;41.67;100765.00;113011;1241;19752;-72
2022/01/21 11:11:41;;;;;;;;;164.00;132.75;;;;;21.07;41.67;100760.63;113032;1242;19059;-71
2022/01/21 11:14:07;;;;;;;;;160.25;133.75;;;;;21.17;41.73;100765.41;113048;1242;18624;-71
2022/01/21 11:16:33;;;;;;;;;147.00;124.33;;;;;21.24;41.81;100763.70;113047;1241;20539;-71
2022/01/21 11:19:07;;;;;;;;;147.67;124.00;;;;;21.28;42.18;100765.02;113060;1242;19426;-72
2022/01/21 11:21:32;;;;;;;;;138.75;117.50;;;;;21.33;42.46;100767.94;113003;1241;18869;-71
2022/01/21 11:23:58;;;;;;;;;145.67;118.33;;;;;21.37;42.52;100767.52;113022;1242;21709;-75
2022/01/21 11:26:24;;;;;;;;;131.33;112.00;;;;;21.39;42.46;100765.98;113019;1242;23034;-71
2022/01/21 11:28:50;;;;;;;;;134.00;112.00;;;;;21.37;42.56;100770.96;112885;1241;22486;-72
2022/01/21 11:31:16;;;;;;;;;125.50;101.25;;;;;21.36;42.28;100763.60;111699;1242;1706267;-70
2022/01/21 11:33:42;;;;;;;;;119.67;101.00;;;;;21.32;42.42;100762.97;112975;1242;22355;-72
2022/01/21 11:36:08;;;;;;;;;114.00;97.67;;;;;21.34;42.72;100768.95;112949;1241;18529;-73
2022/01/21 11:38:34;;;;;;;;;118.67;97.00;;;;;21.36;42.98;100770.90;113021;1241;21826;-75
2022/01/21 11:40:59;;;;;;;;;112.67;93.00;;;;;21.39;43.07;100768.17;113013;1242;18781;-73
2022/01/21 11:43:25;;;;;;;;;105.67;85.33;;;;;21.39;43.29;100770.02;112973;1242;24542;-73